sensor_id;sensor_type;location;lat;lon;timestamp;P1;durP1;ratioP1;P2;durP2;ratioP2
22103;SDS011;11218;48.886;9.426;2023-04-01T00:00:00;32.10;;;5.18;;
22103;SDS011;11218;48.886;9.426;2023-04-01T00:02:29;31.65;;;5.13;;
22103;SDS011;11218;48.886;9.426;2023-04-01T00:04:57;29.67;;;4.82;;
22103;SDS011;11218;48.886;9.426;2023-04-01T00:07:25;28.85;;;4.65;;
22103;SDS011;11218;48.886;9.426;2023-04-01T00:09:56;38.63;;;5.85;;
22103;SDS011;11218;48.886;9.426;2023-04-01T00:12:24;28.85;;;4.75;;
22103;SDS011;11218;48.886;9.426;2023-04-01T00:14:52;36.58;;;6.05;;
22103;SDS011;11218;48.886;9.426;2023-04-01T00:17:20;26.90;;;4.65;;
22103;SDS011;11218;48.886;9.426;2023-04-01T00:19:49;40.20;;;6.50;;
22103;SDS011;11218;48.886;9.426;2023-04-01T00:22:17;32.30;;;5.70;;
22103;SDS011;11218;48.886;9.426;2023-04-01T00:24:45;36.10;;;6.20;;
22103;SDS011;11218;48.886;9.426;2023-04-01T00:27:13;38.17;;;6.30;;
22103;SDS011;11218;48.886;9.426;2023-04-01T00:29:42;41.55;;;6.60;;
22103;SDS011;11218;48.886;9.426;2023-04-01T00:32:10;29.27;;;5.10;;
22103;SDS011;11218;48.886;9.426;2023-04-01T00:34:39;39.83;;;5.97;;
22103;SDS011;11218;48.886;9.426;2023-04-01T00:37:08;27.52;;;4.65;;
22103;SDS011;11218;48.886;9.426;2023-04-01T00:39:37;34.28;;;5.82;;
22103;SDS011;11218;48.886;9.426;2023-04-01T00:42:05;31.85;;;5.40;;
22103;SDS011;11218;48.886;9.426;2023-04-01T00:44:34;30.08;;;4.57;;
22103;SDS011;11218;48.886;9.426;2023-04-01T00:47:02;31.50;;;5.05;;
22103;SDS011;11218;48.886;9.426;2023-04-01T00:49:31;27.13;;;4.50;;
22103;SDS011;11218;48.886;9.426;2023-04-01T00:52:02;35.63;;;5.55;;
22103;SDS011;11218;48.886;9.426;2023-04-01T00:54:34;30.65;;;4.82;;
22103;SDS011;11218;48.886;9.426;2023-04-01T00:57:04;35.80;;;5.75;;
22103;SDS011;11218;48.886;9.426;2023-04-01T00:59:37;31.98;;;5.57;;
22103;SDS011;11218;48.886;9.426;2023-04-01T01:02:10;28.25;;;4.70;;
22103;SDS011;11218;48.886;9.426;2023-04-01T01:04:40;46.50;;;7.55;;
22103;SDS011;11218;48.886;9.426;2023-04-01T01:07:12;28.92;;;4.80;;
22103;SDS011;11218;48.886;9.426;2023-04-01T01:09:51;37.15;;;6.20;;
22103;SDS011;11218;48.886;9.426;2023-04-01T01:12:30;32.15;;;5.55;;
22103;SDS011;11218;48.886;9.426;2023-04-01T01:15:06;35.05;;;6.03;;
22103;SDS011;11218;48.886;9.426;2023-04-01T01:17:42;34.38;;;5.70;;
22103;SDS011;11218;48.886;9.426;2023-04-01T01:20:38;32.58;;;5.53;;
22103;SDS011;11218;48.886;9.426;2023-04-01T01:23:35;23.27;;;4.55;;
22103;SDS011;11218;48.886;9.426;2023-04-01T01:32:13;35.15;;;6.20;;
22103;SDS011;11218;48.886;9.426;2023-04-01T01:34:48;40.00;;;6.97;;
22103;SDS011;11218;48.886;9.426;2023-04-01T01:37:24;30.50;;;5.53;;
22103;SDS011;11218;48.886;9.426;2023-04-01T01:39:56;44.50;;;8.23;;
22103;SDS011;11218;48.886;9.426;2023-04-01T01:42:29;38.22;;;6.50;;
22103;SDS011;11218;48.886;9.426;2023-04-01T01:45:01;28.80;;;5.15;;
22103;SDS011;11218;48.886;9.426;2023-04-01T01:47:31;30.48;;;5.35;;
22103;SDS011;11218;48.886;9.426;2023-04-01T01:50:01;25.88;;;4.75;;
22103;SDS011;11218;48.886;9.426;2023-04-01T01:52:32;37.88;;;6.70;;
22103;SDS011;11218;48.886;9.426;2023-04-01T01:55:00;26.00;;;4.32;;
22103;SDS011;11218;48.886;9.426;2023-04-01T01:57:29;30.02;;;5.35;;
22103;SDS011;11218;48.886;9.426;2023-04-01T02:00:02;32.95;;;5.85;;
22103;SDS011;11218;48.886;9.426;2023-04-01T02:02:40;36.67;;;6.82;;
22103;SDS011;11218;48.886;9.426;2023-04-01T02:05:09;35.55;;;6.22;;
22103;SDS011;11218;48.886;9.426;2023-04-01T02:07:40;30.42;;;5.68;;
22103;SDS011;11218;48.886;9.426;2023-04-01T02:10:14;36.45;;;6.70;;
22103;SDS011;11218;48.886;9.426;2023-04-01T02:12:42;32.47;;;5.72;;
22103;SDS011;11218;48.886;9.426;2023-04-01T02:15:13;26.08;;;4.85;;
22103;SDS011;11218;48.886;9.426;2023-04-01T02:17:44;39.80;;;7.03;;
22103;SDS011;11218;48.886;9.426;2023-04-01T02:20:15;29.90;;;5.10;;
22103;SDS011;11218;48.886;9.426;2023-04-01T02:22:48;39.45;;;6.90;;
22103;SDS011;11218;48.886;9.426;2023-04-01T02:25:18;28.77;;;5.07;;
22103;SDS011;11218;48.886;9.426;2023-04-01T02:27:49;41.58;;;6.80;;
22103;SDS011;11218;48.886;9.426;2023-04-01T02:30:18;37.85;;;6.82;;
22103;SDS011;11218;48.886;9.426;2023-04-01T02:32:47;34.22;;;6.00;;
22103;SDS011;11218;48.886;9.426;2023-04-01T02:35:16;27.75;;;5.28;;
22103;SDS011;11218;48.886;9.426;2023-04-01T02:37:48;38.70;;;7.30;;
22103;SDS011;11218;48.886;9.426;2023-04-01T02:40:17;34.53;;;7.07;;
22103;SDS011;11218;48.886;9.426;2023-04-01T02:42:45;40.13;;;7.30;;
22103;SDS011;11218;48.886;9.426;2023-04-01T02:45:13;36.25;;;6.80;;
22103;SDS011;11218;48.886;9.426;2023-04-01T02:47:42;47.75;;;9.52;;
22103;SDS011;11218;48.886;9.426;2023-04-01T02:50:10;32.25;;;7.13;;
22103;SDS011;11218;48.886;9.426;2023-04-01T02:52:39;28.35;;;7.13;;
22103;SDS011;11218;48.886;9.426;2023-04-01T02:55:08;33.88;;;7.07;;
22103;SDS011;11218;48.886;9.426;2023-04-01T02:57:37;33.60;;;6.72;;
22103;SDS011;11218;48.886;9.426;2023-04-01T03:00:06;39.58;;;9.00;;
22103;SDS011;11218;48.886;9.426;2023-04-01T03:02:37;36.28;;;8.02;;
22103;SDS011;11218;48.886;9.426;2023-04-01T03:05:06;38.53;;;8.35;;
22103;SDS011;11218;48.886;9.426;2023-04-01T03:07:35;30.67;;;6.68;;
22103;SDS011;11218;48.886;9.426;2023-04-01T03:10:03;34.67;;;7.38;;
22103;SDS011;11218;48.886;9.426;2023-04-01T03:12:33;36.53;;;6.88;;
22103;SDS011;11218;48.886;9.426;2023-04-01T03:15:02;37.58;;;7.75;;
22103;SDS011;11218;48.886;9.426;2023-04-01T03:17:37;36.78;;;7.55;;
22103;SDS011;11218;48.886;9.426;2023-04-01T03:20:05;36.30;;;7.85;;
22103;SDS011;11218;48.886;9.426;2023-04-01T03:22:34;39.90;;;8.57;;
22103;SDS011;11218;48.886;9.426;2023-04-01T03:25:03;31.95;;;6.97;;
22103;SDS011;11218;48.886;9.426;2023-04-01T03:27:33;45.90;;;10.50;;
22103;SDS011;11218;48.886;9.426;2023-04-01T03:30:02;42.10;;;8.77;;
22103;SDS011;11218;48.886;9.426;2023-04-01T03:32:31;30.98;;;7.82;;
22103;SDS011;11218;48.886;9.426;2023-04-01T03:34:59;36.67;;;8.77;;
22103;SDS011;11218;48.886;9.426;2023-04-01T03:37:27;30.15;;;7.57;;
22103;SDS011;11218;48.886;9.426;2023-04-01T03:39:55;43.67;;;11.93;;
22103;SDS011;11218;48.886;9.426;2023-04-01T03:42:23;37.80;;;9.77;;
22103;SDS011;11218;48.886;9.426;2023-04-01T03:44:53;38.80;;;9.15;;
22103;SDS011;11218;48.886;9.426;2023-04-01T03:47:21;40.92;;;11.63;;
22103;SDS011;11218;48.886;9.426;2023-04-01T03:49:49;62.53;;;23.05;;
22103;SDS011;11218;48.886;9.426;2023-04-01T03:52:18;167.77;;;81.63;;
22103;SDS011;11218;48.886;9.426;2023-04-01T03:54:47;135.00;;;68.13;;
22103;SDS011;11218;48.886;9.426;2023-04-01T03:57:16;129.07;;;66.90;;
22103;SDS011;11218;48.886;9.426;2023-04-01T03:59:44;211.50;;;91.43;;
22103;SDS011;11218;48.886;9.426;2023-04-01T04:02:14;170.45;;;82.10;;
22103;SDS011;11218;48.886;9.426;2023-04-01T04:04:42;146.90;;;67.82;;
22103;SDS011;11218;48.886;9.426;2023-04-01T04:07:10;123.25;;;61.20;;
22103;SDS011;11218;48.886;9.426;2023-04-01T04:09:38;148.25;;;71.20;;
22103;SDS011;11218;48.886;9.426;2023-04-01T04:12:06;62.97;;;28.17;;
22103;SDS011;11218;48.886;9.426;2023-04-01T04:14:34;151.63;;;72.88;;
22103;SDS011;11218;48.886;9.426;2023-04-01T04:17:02;123.72;;;62.47;;
22103;SDS011;11218;48.886;9.426;2023-04-01T04:19:33;178.45;;;83.65;;
22103;SDS011;11218;48.886;9.426;2023-04-01T04:22:01;233.43;;;100.25;;
22103;SDS011;11218;48.886;9.426;2023-04-01T04:24:29;269.00;;;110.80;;
22103;SDS011;11218;48.886;9.426;2023-04-01T04:26:57;248.05;;;104.72;;
22103;SDS011;11218;48.886;9.426;2023-04-01T04:29:25;268.27;;;110.10;;
22103;SDS011;11218;48.886;9.426;2023-04-01T04:31:53;298.02;;;116.45;;
22103;SDS011;11218;48.886;9.426;2023-04-01T04:34:22;285.20;;;114.10;;
22103;SDS011;11218;48.886;9.426;2023-04-01T04:36:51;285.58;;;114.35;;
22103;SDS011;11218;48.886;9.426;2023-04-01T04:39:19;261.95;;;107.43;;
22103;SDS011;11218;48.886;9.426;2023-04-01T04:41:47;291.40;;;115.18;;
22103;SDS011;11218;48.886;9.426;2023-04-01T04:44:15;245.02;;;99.30;;
22103;SDS011;11218;48.886;9.426;2023-04-01T04:46:44;211.15;;;83.05;;
22103;SDS011;11218;48.886;9.426;2023-04-01T04:49:12;211.00;;;88.60;;
22103;SDS011;11218;48.886;9.426;2023-04-01T04:51:40;187.23;;;79.55;;
22103;SDS011;11218;48.886;9.426;2023-04-01T04:54:10;216.07;;;88.30;;
22103;SDS011;11218;48.886;9.426;2023-04-01T04:56:38;66.93;;;30.95;;
22103;SDS011;11218;48.886;9.426;2023-04-01T04:59:06;127.18;;;55.33;;
22103;SDS011;11218;48.886;9.426;2023-04-01T05:01:34;134.55;;;58.17;;
22103;SDS011;11218;48.886;9.426;2023-04-01T05:04:03;95.20;;;39.22;;
22103;SDS011;11218;48.886;9.426;2023-04-01T05:06:31;67.82;;;29.63;;
22103;SDS011;11218;48.886;9.426;2023-04-01T05:08:59;77.85;;;33.28;;
22103;SDS011;11218;48.886;9.426;2023-04-01T05:11:29;156.05;;;60.03;;
22103;SDS011;11218;48.886;9.426;2023-04-01T05:13:57;148.52;;;55.90;;
22103;SDS011;11218;48.886;9.426;2023-04-01T05:16:25;58.10;;;14.60;;
22103;SDS011;11218;48.886;9.426;2023-04-01T05:18:53;188.82;;;71.32;;
22103;SDS011;11218;48.886;9.426;2023-04-01T05:21:21;73.38;;;26.45;;
22103;SDS011;11218;48.886;9.426;2023-04-01T05:23:49;108.85;;;41.60;;
22103;SDS011;11218;48.886;9.426;2023-04-01T05:26:18;39.78;;;9.32;;
22103;SDS011;11218;48.886;9.426;2023-04-01T05:28:47;54.97;;;13.32;;
22103;SDS011;11218;48.886;9.426;2023-04-01T05:31:15;134.75;;;55.72;;
22103;SDS011;11218;48.886;9.426;2023-04-01T05:33:43;73.70;;;31.13;;
22103;SDS011;11218;48.886;9.426;2023-04-01T05:36:12;58.03;;;17.58;;
22103;SDS011;11218;48.886;9.426;2023-04-01T05:38:42;62.53;;;19.48;;
22103;SDS011;11218;48.886;9.426;2023-04-01T05:41:12;224.95;;;89.43;;
22103;SDS011;11218;48.886;9.426;2023-04-01T05:43:40;66.68;;;25.45;;
22103;SDS011;11218;48.886;9.426;2023-04-01T05:46:11;70.95;;;23.23;;
22103;SDS011;11218;48.886;9.426;2023-04-01T05:48:39;110.38;;;38.15;;
22103;SDS011;11218;48.886;9.426;2023-04-01T05:51:12;67.53;;;22.90;;
22103;SDS011;11218;48.886;9.426;2023-04-01T05:53:40;28.83;;;6.32;;
22103;SDS011;11218;48.886;9.426;2023-04-01T05:56:09;132.77;;;53.42;;
22103;SDS011;11218;48.886;9.426;2023-04-01T05:58:37;168.90;;;71.82;;
22103;SDS011;11218;48.886;9.426;2023-04-01T06:01:06;60.55;;;12.57;;
22103;SDS011;11218;48.886;9.426;2023-04-01T06:03:43;88.25;;;35.83;;
22103;SDS011;11218;48.886;9.426;2023-04-01T06:06:12;232.35;;;93.30;;
22103;SDS011;11218;48.886;9.426;2023-04-01T06:08:42;204.57;;;78.93;;
22103;SDS011;11218;48.886;9.426;2023-04-01T06:11:17;98.75;;;46.00;;
22103;SDS011;11218;48.886;9.426;2023-04-01T06:14:07;232.70;;;95.07;;
22103;SDS011;11218;48.886;9.426;2023-04-01T06:16:51;357.48;;;129.38;;
22103;SDS011;11218;48.886;9.426;2023-04-01T06:19:34;269.38;;;104.95;;
22103;SDS011;11218;48.886;9.426;2023-04-01T06:25:31;148.15;;;67.70;;
22103;SDS011;11218;48.886;9.426;2023-04-01T06:31:34;147.30;;;64.93;;
22103;SDS011;11218;48.886;9.426;2023-04-01T06:34:25;283.48;;;106.80;;
22103;SDS011;11218;48.886;9.426;2023-04-01T06:37:10;188.23;;;70.07;;
22103;SDS011;11218;48.886;9.426;2023-04-01T06:40:03;62.22;;;14.60;;
22103;SDS011;11218;48.886;9.426;2023-04-01T06:42:48;51.42;;;11.05;;
22103;SDS011;11218;48.886;9.426;2023-04-01T06:45:31;52.70;;;10.60;;
22103;SDS011;11218;48.886;9.426;2023-04-01T06:48:15;41.33;;;8.23;;
22103;SDS011;11218;48.886;9.426;2023-04-01T06:51:06;38.33;;;8.05;;
22103;SDS011;11218;48.886;9.426;2023-04-01T06:53:59;50.08;;;9.02;;
22103;SDS011;11218;48.886;9.426;2023-04-01T06:56:44;37.17;;;7.88;;
22103;SDS011;11218;48.886;9.426;2023-04-01T06:59:29;33.10;;;7.10;;
22103;SDS011;11218;48.886;9.426;2023-04-01T07:02:18;34.42;;;8.32;;
22103;SDS011;11218;48.886;9.426;2023-04-01T07:05:06;38.05;;;7.60;;
22103;SDS011;11218;48.886;9.426;2023-04-01T07:07:49;35.05;;;6.47;;
22103;SDS011;11218;48.886;9.426;2023-04-01T07:10:39;38.90;;;9.80;;
22103;SDS011;11218;48.886;9.426;2023-04-01T07:13:12;51.30;;;12.02;;
22103;SDS011;11218;48.886;9.426;2023-04-01T07:15:47;41.70;;;8.80;;
22103;SDS011;11218;48.886;9.426;2023-04-01T07:18:24;36.88;;;7.82;;
22103;SDS011;11218;48.886;9.426;2023-04-01T07:21:03;51.17;;;10.30;;
22103;SDS011;11218;48.886;9.426;2023-04-01T07:23:40;34.97;;;6.40;;
22103;SDS011;11218;48.886;9.426;2023-04-01T07:26:15;31.25;;;5.57;;
22103;SDS011;11218;48.886;9.426;2023-04-01T07:28:47;41.92;;;7.43;;
22103;SDS011;11218;48.886;9.426;2023-04-01T07:31:18;41.97;;;8.05;;
22103;SDS011;11218;48.886;9.426;2023-04-01T07:33:56;43.30;;;7.93;;
22103;SDS011;11218;48.886;9.426;2023-04-01T07:36:33;43.60;;;7.65;;
22103;SDS011;11218;48.886;9.426;2023-04-01T07:39:10;50.17;;;9.07;;
22103;SDS011;11218;48.886;9.426;2023-04-01T07:41:49;39.60;;;7.82;;
22103;SDS011;11218;48.886;9.426;2023-04-01T07:44:25;34.63;;;6.50;;
22103;SDS011;11218;48.886;9.426;2023-04-01T07:47:07;40.28;;;7.10;;
22103;SDS011;11218;48.886;9.426;2023-04-01T07:49:45;36.42;;;6.47;;
22103;SDS011;11218;48.886;9.426;2023-04-01T07:52:26;50.00;;;8.40;;
22103;SDS011;11218;48.886;9.426;2023-04-01T07:55:03;38.08;;;7.15;;
22103;SDS011;11218;48.886;9.426;2023-04-01T07:57:37;42.03;;;7.60;;
22103;SDS011;11218;48.886;9.426;2023-04-01T08:00:17;41.58;;;7.28;;
22103;SDS011;11218;48.886;9.426;2023-04-01T08:02:53;33.47;;;5.78;;
22103;SDS011;11218;48.886;9.426;2023-04-01T08:05:41;39.72;;;7.40;;
22103;SDS011;11218;48.886;9.426;2023-04-01T08:08:24;46.90;;;8.40;;
22103;SDS011;11218;48.886;9.426;2023-04-01T08:11:04;50.55;;;9.07;;
22103;SDS011;11218;48.886;9.426;2023-04-01T08:13:42;40.80;;;7.28;;
22103;SDS011;11218;48.886;9.426;2023-04-01T08:16:17;39.40;;;6.97;;
22103;SDS011;11218;48.886;9.426;2023-04-01T08:18:53;44.47;;;7.95;;
22103;SDS011;11218;48.886;9.426;2023-04-01T08:21:32;29.77;;;5.20;;
22103;SDS011;11218;48.886;9.426;2023-04-01T08:24:06;49.55;;;8.30;;
22103;SDS011;11218;48.886;9.426;2023-04-01T08:27:03;48.85;;;8.57;;
22103;SDS011;11218;48.886;9.426;2023-04-01T08:29:46;42.85;;;8.38;;
22103;SDS011;11218;48.886;9.426;2023-04-01T08:32:28;53.95;;;9.68;;
22103;SDS011;11218;48.886;9.426;2023-04-01T08:35:08;53.90;;;9.15;;
22103;SDS011;11218;48.886;9.426;2023-04-01T08:37:43;36.35;;;6.38;;
22103;SDS011;11218;48.886;9.426;2023-04-01T08:40:22;45.15;;;8.15;;
22103;SDS011;11218;48.886;9.426;2023-04-01T08:43:08;65.65;;;12.55;;
22103;SDS011;11218;48.886;9.426;2023-04-01T08:48:56;37.13;;;6.53;;
22103;SDS011;11218;48.886;9.426;2023-04-01T08:54:26;36.75;;;6.85;;
22103;SDS011;11218;48.886;9.426;2023-04-01T08:57:08;57.00;;;10.05;;
22103;SDS011;11218;48.886;9.426;2023-04-01T08:59:49;26.60;;;5.05;;
22103;SDS011;11218;48.886;9.426;2023-04-01T09:02:34;61.22;;;20.75;;
22103;SDS011;11218;48.886;9.426;2023-04-01T09:05:43;36.08;;;7.15;;
22103;SDS011;11218;48.886;9.426;2023-04-01T09:08:33;39.28;;;7.18;;
22103;SDS011;11218;48.886;9.426;2023-04-01T09:11:12;58.35;;;10.80;;
22103;SDS011;11218;48.886;9.426;2023-04-01T09:13:58;37.05;;;6.95;;
22103;SDS011;11218;48.886;9.426;2023-04-01T09:16:56;36.08;;;6.55;;
22103;SDS011;11218;48.886;9.426;2023-04-01T09:19:43;49.60;;;9.20;;
22103;SDS011;11218;48.886;9.426;2023-04-01T09:22:30;39.15;;;7.13;;
22103;SDS011;11218;48.886;9.426;2023-04-01T09:28:03;104.50;;;34.40;;
22103;SDS011;11218;48.886;9.426;2023-04-01T09:33:54;94.97;;;37.95;;
22103;SDS011;11218;48.886;9.426;2023-04-01T09:36:50;39.30;;;7.85;;
22103;SDS011;11218;48.886;9.426;2023-04-01T09:39:37;195.10;;;73.63;;
22103;SDS011;11218;48.886;9.426;2023-04-01T09:42:15;57.55;;;10.45;;
22103;SDS011;11218;48.886;9.426;2023-04-01T09:45:00;150.60;;;58.65;;
22103;SDS011;11218;48.886;9.426;2023-04-01T09:47:37;41.65;;;6.53;;
22103;SDS011;11218;48.886;9.426;2023-04-01T09:50:31;32.28;;;6.63;;
22103;SDS011;11218;48.886;9.426;2023-04-01T09:53:07;295.27;;;107.85;;
22103;SDS011;11218;48.886;9.426;2023-04-01T09:58:57;31.77;;;6.65;;
22103;SDS011;11218;48.886;9.426;2023-04-01T10:01:45;39.65;;;8.55;;
22103;SDS011;11218;48.886;9.426;2023-04-01T10:10:55;52.10;;;10.77;;
22103;SDS011;11218;48.886;9.426;2023-04-01T10:20:17;327.92;;;119.55;;
22103;SDS011;11218;48.886;9.426;2023-04-01T10:23:07;45.30;;;7.78;;
22103;SDS011;11218;48.886;9.426;2023-04-01T10:25:54;42.70;;;8.90;;
22103;SDS011;11218;48.886;9.426;2023-04-01T10:28:46;35.40;;;8.00;;
22103;SDS011;11218;48.886;9.426;2023-04-01T10:31:36;379.35;;;131.88;;
22103;SDS011;11218;48.886;9.426;2023-04-01T10:34:26;49.90;;;8.75;;
22103;SDS011;11218;48.886;9.426;2023-04-01T10:37:15;40.17;;;7.80;;
22103;SDS011;11218;48.886;9.426;2023-04-01T10:43:16;222.52;;;79.13;;
22103;SDS011;11218;48.886;9.426;2023-04-01T10:46:22;50.63;;;9.77;;
22103;SDS011;11218;48.886;9.426;2023-04-01T10:49:26;51.67;;;9.10;;
22103;SDS011;11218;48.886;9.426;2023-04-01T10:58:48;49.25;;;8.52;;
22103;SDS011;11218;48.886;9.426;2023-04-01T11:04:52;38.70;;;6.65;;
22103;SDS011;11218;48.886;9.426;2023-04-01T11:13:58;32.30;;;5.55;;
22103;SDS011;11218;48.886;9.426;2023-04-01T11:26:06;40.50;;;10.40;;
22103;SDS011;11218;48.886;9.426;2023-04-01T11:28:49;41.60;;;9.82;;
22103;SDS011;11218;48.886;9.426;2023-04-01T11:31:47;35.85;;;7.93;;
22103;SDS011;11218;48.886;9.426;2023-04-01T11:34:37;45.00;;;11.23;;
22103;SDS011;11218;48.886;9.426;2023-04-01T11:37:20;50.40;;;10.00;;
22103;SDS011;11218;48.886;9.426;2023-04-01T11:39:59;33.90;;;8.18;;
22103;SDS011;11218;48.886;9.426;2023-04-01T11:42:40;38.75;;;8.50;;
22103;SDS011;11218;48.886;9.426;2023-04-01T11:45:17;55.40;;;9.75;;
22103;SDS011;11218;48.886;9.426;2023-04-01T11:47:58;53.90;;;10.80;;
22103;SDS011;11218;48.886;9.426;2023-04-01T11:50:42;52.08;;;12.18;;
22103;SDS011;11218;48.886;9.426;2023-04-01T11:53:22;59.25;;;15.07;;
22103;SDS011;11218;48.886;9.426;2023-04-01T11:56:01;34.42;;;7.60;;
22103;SDS011;11218;48.886;9.426;2023-04-01T11:58:44;49.58;;;15.07;;
22103;SDS011;11218;48.886;9.426;2023-04-01T12:01:33;18.08;;;4.88;;
22103;SDS011;11218;48.886;9.426;2023-04-01T12:07:15;67.25;;;11.50;;
22103;SDS011;11218;48.886;9.426;2023-04-01T12:09:52;47.90;;;9.52;;
22103;SDS011;11218;48.886;9.426;2023-04-01T12:12:29;39.58;;;7.60;;
22103;SDS011;11218;48.886;9.426;2023-04-01T12:15:20;60.03;;;10.73;;
22103;SDS011;11218;48.886;9.426;2023-04-01T12:17:55;35.38;;;6.35;;
22103;SDS011;11218;48.886;9.426;2023-04-01T12:20:38;42.65;;;9.90;;
22103;SDS011;11218;48.886;9.426;2023-04-01T12:23:16;42.63;;;7.90;;
22103;SDS011;11218;48.886;9.426;2023-04-01T12:26:02;44.70;;;9.40;;
22103;SDS011;11218;48.886;9.426;2023-04-01T12:28:50;32.90;;;7.75;;
22103;SDS011;11218;48.886;9.426;2023-04-01T12:31:34;31.70;;;8.30;;
22103;SDS011;11218;48.886;9.426;2023-04-01T12:34:20;38.88;;;7.93;;
22103;SDS011;11218;48.886;9.426;2023-04-01T12:37:05;55.03;;;9.60;;
22103;SDS011;11218;48.886;9.426;2023-04-01T12:39:44;45.60;;;7.80;;
22103;SDS011;11218;48.886;9.426;2023-04-01T12:42:43;55.67;;;9.00;;
22103;SDS011;11218;48.886;9.426;2023-04-01T12:45:24;51.53;;;8.20;;
22103;SDS011;11218;48.886;9.426;2023-04-01T12:48:10;46.80;;;8.30;;
22103;SDS011;11218;48.886;9.426;2023-04-01T12:50:55;48.97;;;7.85;;
22103;SDS011;11218;48.886;9.426;2023-04-01T12:53:58;42.25;;;7.07;;
22103;SDS011;11218;48.886;9.426;2023-04-01T12:56:49;46.97;;;7.10;;
22103;SDS011;11218;48.886;9.426;2023-04-01T12:59:31;57.05;;;8.63;;
22103;SDS011;11218;48.886;9.426;2023-04-01T13:02:11;49.42;;;7.70;;
22103;SDS011;11218;48.886;9.426;2023-04-01T13:04:52;45.95;;;7.10;;
22103;SDS011;11218;48.886;9.426;2023-04-01T13:07:41;30.27;;;4.90;;
22103;SDS011;11218;48.886;9.426;2023-04-01T13:10:30;42.80;;;6.57;;
22103;SDS011;11218;48.886;9.426;2023-04-01T13:13:21;39.15;;;6.30;;
22103;SDS011;11218;48.886;9.426;2023-04-01T13:16:10;52.17;;;11.73;;
22103;SDS011;11218;48.886;9.426;2023-04-01T13:18:51;36.42;;;7.05;;
22103;SDS011;11218;48.886;9.426;2023-04-01T13:21:42;60.83;;;10.05;;
22103;SDS011;11218;48.886;9.426;2023-04-01T13:24:37;42.08;;;7.43;;
22103;SDS011;11218;48.886;9.426;2023-04-01T13:27:23;56.08;;;8.20;;
22103;SDS011;11218;48.886;9.426;2023-04-01T13:30:05;53.75;;;8.45;;
22103;SDS011;11218;48.886;9.426;2023-04-01T13:32:56;52.78;;;7.78;;
22103;SDS011;11218;48.886;9.426;2023-04-01T13:35:37;44.63;;;7.00;;
22103;SDS011;11218;48.886;9.426;2023-04-01T13:38:28;52.88;;;7.93;;
22103;SDS011;11218;48.886;9.426;2023-04-01T13:41:21;65.35;;;9.73;;
22103;SDS011;11218;48.886;9.426;2023-04-01T13:44:11;44.92;;;6.82;;
22103;SDS011;11218;48.886;9.426;2023-04-01T13:47:17;42.97;;;6.53;;
22103;SDS011;11218;48.886;9.426;2023-04-01T13:50:17;44.25;;;6.97;;
22103;SDS011;11218;48.886;9.426;2023-04-01T13:57:20;48.67;;;7.60;;
22103;SDS011;11218;48.886;9.426;2023-04-01T14:04:03;46.38;;;7.15;;
22103;SDS011;11218;48.886;9.426;2023-04-01T14:07:28;53.13;;;8.23;;
22103;SDS011;11218;48.886;9.426;2023-04-01T14:10:22;59.60;;;8.90;;
22103;SDS011;11218;48.886;9.426;2023-04-01T14:13:02;50.22;;;7.47;;
22103;SDS011;11218;48.886;9.426;2023-04-01T14:15:52;36.95;;;5.88;;
22103;SDS011;11218;48.886;9.426;2023-04-01T14:18:41;49.35;;;7.68;;
22103;SDS011;11218;48.886;9.426;2023-04-01T14:21:23;49.40;;;8.18;;
22103;SDS011;11218;48.886;9.426;2023-04-01T14:24:20;39.72;;;6.78;;
22103;SDS011;11218;48.886;9.426;2023-04-01T14:27:27;47.60;;;7.25;;
22103;SDS011;11218;48.886;9.426;2023-04-01T14:33:15;69.35;;;10.27;;
22103;SDS011;11218;48.886;9.426;2023-04-01T14:35:56;41.38;;;6.53;;
22103;SDS011;11218;48.886;9.426;2023-04-01T14:38:39;83.00;;;11.27;;
22103;SDS011;11218;48.886;9.426;2023-04-01T14:41:19;71.90;;;10.68;;
22103;SDS011;11218;48.886;9.426;2023-04-01T14:44:11;42.80;;;6.47;;
22103;SDS011;11218;48.886;9.426;2023-04-01T14:49:46;53.70;;;8.32;;
22103;SDS011;11218;48.886;9.426;2023-04-01T14:52:24;32.55;;;5.40;;
22103;SDS011;11218;48.886;9.426;2023-04-01T14:54:56;56.22;;;8.90;;
22103;SDS011;11218;48.886;9.426;2023-04-01T14:57:27;55.75;;;8.57;;
22103;SDS011;11218;48.886;9.426;2023-04-01T14:59:59;43.55;;;7.22;;
22103;SDS011;11218;48.886;9.426;2023-04-01T15:02:37;65.07;;;10.30;;
22103;SDS011;11218;48.886;9.426;2023-04-01T15:05:23;36.88;;;6.28;;
22103;SDS011;11218;48.886;9.426;2023-04-01T15:08:14;31.73;;;5.50;;
22103;SDS011;11218;48.886;9.426;2023-04-01T15:10:53;43.13;;;7.13;;
22103;SDS011;11218;48.886;9.426;2023-04-01T15:14:10;28.00;;;4.90;;
22103;SDS011;11218;48.886;9.426;2023-04-01T15:17:03;48.17;;;7.60;;
22103;SDS011;11218;48.886;9.426;2023-04-01T15:19:57;28.50;;;4.90;;
22103;SDS011;11218;48.886;9.426;2023-04-01T15:22:47;33.50;;;5.82;;
22103;SDS011;11218;48.886;9.426;2023-04-01T15:25:30;34.05;;;5.70;;
22103;SDS011;11218;48.886;9.426;2023-04-01T15:28:08;29.42;;;5.32;;
22103;SDS011;11218;48.886;9.426;2023-04-01T15:30:45;31.08;;;6.13;;
22103;SDS011;11218;48.886;9.426;2023-04-01T15:33:31;45.38;;;8.07;;
22103;SDS011;11218;48.886;9.426;2023-04-01T15:36:10;27.40;;;5.43;;
22103;SDS011;11218;48.886;9.426;2023-04-01T15:38:48;33.55;;;6.55;;
22103;SDS011;11218;48.886;9.426;2023-04-01T15:41:22;41.78;;;7.63;;
22103;SDS011;11218;48.886;9.426;2023-04-01T15:43:55;35.15;;;5.78;;
22103;SDS011;11218;48.886;9.426;2023-04-01T15:46:29;32.47;;;5.50;;
22103;SDS011;11218;48.886;9.426;2023-04-01T15:49:31;30.48;;;5.40;;
22103;SDS011;11218;48.886;9.426;2023-04-01T15:52:10;31.45;;;6.32;;
22103;SDS011;11218;48.886;9.426;2023-04-01T15:54:49;33.92;;;6.07;;
22103;SDS011;11218;48.886;9.426;2023-04-01T15:57:46;25.52;;;4.70;;
22103;SDS011;11218;48.886;9.426;2023-04-01T16:00:27;44.78;;;8.10;;
22103;SDS011;11218;48.886;9.426;2023-04-01T16:03:07;37.75;;;6.35;;
22103;SDS011;11218;48.886;9.426;2023-04-01T16:05:51;30.73;;;5.47;;
22103;SDS011;11218;48.886;9.426;2023-04-01T16:08:45;35.95;;;6.88;;
22103;SDS011;11218;48.886;9.426;2023-04-01T16:11:25;55.72;;;9.57;;
22103;SDS011;11218;48.886;9.426;2023-04-01T16:14:11;44.63;;;7.43;;
22103;SDS011;11218;48.886;9.426;2023-04-01T16:16:50;36.28;;;6.28;;
22103;SDS011;11218;48.886;9.426;2023-04-01T16:19:31;34.78;;;5.80;;
22103;SDS011;11218;48.886;9.426;2023-04-01T16:22:05;31.73;;;5.43;;
22103;SDS011;11218;48.886;9.426;2023-04-01T16:24:38;40.13;;;6.57;;
22103;SDS011;11218;48.886;9.426;2023-04-01T16:27:12;41.03;;;7.05;;
22103;SDS011;11218;48.886;9.426;2023-04-01T16:29:49;53.33;;;8.57;;
22103;SDS011;11218;48.886;9.426;2023-04-01T16:32:28;33.38;;;5.72;;
22103;SDS011;11218;48.886;9.426;2023-04-01T16:35:13;33.13;;;5.63;;
22103;SDS011;11218;48.886;9.426;2023-04-01T16:37:52;40.50;;;6.30;;
22103;SDS011;11218;48.886;9.426;2023-04-01T16:40:24;18.20;;;3.47;;
22103;SDS011;11218;48.886;9.426;2023-04-01T16:43:10;27.90;;;4.60;;
22103;SDS011;11218;48.886;9.426;2023-04-01T16:45:45;55.45;;;9.10;;
22103;SDS011;11218;48.886;9.426;2023-04-01T16:48:22;40.10;;;6.82;;
22103;SDS011;11218;48.886;9.426;2023-04-01T16:50:58;37.95;;;6.35;;
22103;SDS011;11218;48.886;9.426;2023-04-01T16:53:31;45.17;;;7.38;;
22103;SDS011;11218;48.886;9.426;2023-04-01T16:56:11;49.97;;;8.05;;
22103;SDS011;11218;48.886;9.426;2023-04-01T16:58:42;40.90;;;6.65;;